Terminal Aerodrome Forecast
Issued by NWS

Home | Current Version | Previous Version | Graphics & Text | Print | Product List | Glossary On
Versions: 1 2 3 4 5 6 7 8 9 10 11 12 13 14 15 16 17
097
FTUS43 KABR 211121
TAFATY
TAF
KATY 211121Z 2112/2212 31003KT P6SM OVC070
     FM211300 02005KT P6SM VCSH OVC070
     FM211900 03009KT P6SM VCSH OVC050
     FM212100 02011KT P6SM OVC070
     FM220500 02013KT P6SM OVC015
     FM220900 02014G21KT P6SM OVC015=

USA.gov is the U.S. government's official web portal to all federal, state and local government web resources and services.